sensor_id;sensor_type;location;lat;lon;timestamp;temperature;humidity
18506;DHT22;9382;53.242;10.438;2022-12-07T00:01:21;3.10;99.90
18506;DHT22;9382;53.242;10.438;2022-12-07T00:03:49;3.10;99.90
18506;DHT22;9382;53.242;10.438;2022-12-07T00:06:19;3.10;99.90
18506;DHT22;9382;53.242;10.438;2022-12-07T00:08:47;3.10;99.90
18506;DHT22;9382;53.242;10.438;2022-12-07T00:11:15;3.10;99.90
18506;DHT22;9382;53.242;10.438;2022-12-07T00:13:43;3.20;99.90
18506;DHT22;9382;53.242;10.438;2022-12-07T00:16:12;3.10;99.90
18506;DHT22;9382;53.242;10.438;2022-12-07T00:18:40;3.20;99.90
18506;DHT22;9382;53.242;10.438;2022-12-07T00:21:10;3.10;99.90
18506;DHT22;9382;53.242;10.438;2022-12-07T00:23:38;3.20;99.90
18506;DHT22;9382;53.242;10.438;2022-12-07T00:26:05;3.20;99.90
18506;DHT22;9382;53.242;10.438;2022-12-07T00:28:33;3.20;99.90
18506;DHT22;9382;53.242;10.438;2022-12-07T00:31:04;3.30;99.90
18506;DHT22;9382;53.242;10.438;2022-12-07T00:33:31;3.20;99.90
18506;DHT22;9382;53.242;10.438;2022-12-07T00:35:59;3.30;99.90
18506;DHT22;9382;53.242;10.438;2022-12-07T00:38:28;3.30;99.90
18506;DHT22;9382;53.242;10.438;2022-12-07T00:41:00;3.30;99.90
18506;DHT22;9382;53.242;10.438;2022-12-07T00:43:27;3.30;99.90
18506;DHT22;9382;53.242;10.438;2022-12-07T00:45:54;3.30;99.90
18506;DHT22;9382;53.242;10.438;2022-12-07T00:48:22;3.30;99.90
18506;DHT22;9382;53.242;10.438;2022-12-07T00:50:49;3.40;99.90
18506;DHT22;9382;53.242;10.438;2022-12-07T00:53:16;3.40;99.90
18506;DHT22;9382;53.242;10.438;2022-12-07T00:55:43;3.40;99.90
18506;DHT22;9382;53.242;10.438;2022-12-07T00:58:11;3.40;99.90
18506;DHT22;9382;53.242;10.438;2022-12-07T01:00:40;3.40;99.90
18506;DHT22;9382;53.242;10.438;2022-12-07T01:03:09;3.50;99.90
18506;DHT22;9382;53.242;10.438;2022-12-07T01:05:36;3.50;99.90
18506;DHT22;9382;53.242;10.438;2022-12-07T01:08:03;3.40;99.90
18506;DHT22;9382;53.242;10.438;2022-12-07T01:10:31;3.50;99.90
18506;DHT22;9382;53.242;10.438;2022-12-07T01:12:58;3.50;99.90
18506;DHT22;9382;53.242;10.438;2022-12-07T01:15:26;3.50;99.90
18506;DHT22;9382;53.242;10.438;2022-12-07T01:17:54;3.60;99.90
18506;DHT22;9382;53.242;10.438;2022-12-07T01:20:21;3.60;99.90
18506;DHT22;9382;53.242;10.438;2022-12-07T01:22:48;3.50;99.90
18506;DHT22;9382;53.242;10.438;2022-12-07T01:25:15;3.60;99.90
18506;DHT22;9382;53.242;10.438;2022-12-07T01:27:42;3.60;99.90
18506;DHT22;9382;53.242;10.438;2022-12-07T01:30:11;3.60;99.90
18506;DHT22;9382;53.242;10.438;2022-12-07T01:32:39;3.60;99.90
18506;DHT22;9382;53.242;10.438;2022-12-07T01:35:06;3.60;99.90
18506;DHT22;9382;53.242;10.438;2022-12-07T01:37:35;3.60;99.90
18506;DHT22;9382;53.242;10.438;2022-12-07T01:40:03;3.60;99.90
18506;DHT22;9382;53.242;10.438;2022-12-07T01:42:30;3.60;99.90
18506;DHT22;9382;53.242;10.438;2022-12-07T01:48:02;3.70;99.90
18506;DHT22;9382;53.242;10.438;2022-12-07T01:50:30;3.70;99.90
18506;DHT22;9382;53.242;10.438;2022-12-07T01:52:59;3.70;99.90
18506;DHT22;9382;53.242;10.438;2022-12-07T01:55:27;3.70;99.90
18506;DHT22;9382;53.242;10.438;2022-12-07T01:57:55;3.70;99.90
18506;DHT22;9382;53.242;10.438;2022-12-07T02:00:23;3.70;99.90
18506;DHT22;9382;53.242;10.438;2022-12-07T02:02:54;3.70;99.90
18506;DHT22;9382;53.242;10.438;2022-12-07T02:05:24;3.70;99.90
18506;DHT22;9382;53.242;10.438;2022-12-07T02:07:54;3.80;99.90
18506;DHT22;9382;53.242;10.438;2022-12-07T02:10:23;3.80;99.90
18506;DHT22;9382;53.242;10.438;2022-12-07T02:12:53;3.80;99.90
18506;DHT22;9382;53.242;10.438;2022-12-07T02:15:22;3.80;99.90
18506;DHT22;9382;53.242;10.438;2022-12-07T02:18:01;3.90;99.90
18506;DHT22;9382;53.242;10.438;2022-12-07T02:20:33;3.90;99.90
18506;DHT22;9382;53.242;10.438;2022-12-07T02:26:32;3.90;99.90
18506;DHT22;9382;53.242;10.438;2022-12-07T02:29:11;3.90;99.90
18506;DHT22;9382;53.242;10.438;2022-12-07T02:31:44;3.90;99.90
18506;DHT22;9382;53.242;10.438;2022-12-07T02:34:20;3.90;99.90
18506;DHT22;9382;53.242;10.438;2022-12-07T02:36:53;3.90;99.90
18506;DHT22;9382;53.242;10.438;2022-12-07T02:39:27;3.90;99.90
18506;DHT22;9382;53.242;10.438;2022-12-07T02:41:58;3.90;99.90
18506;DHT22;9382;53.242;10.438;2022-12-07T02:44:28;3.80;99.90
18506;DHT22;9382;53.242;10.438;2022-12-07T02:47:00;3.80;99.90
18506;DHT22;9382;53.242;10.438;2022-12-07T02:49:29;3.90;99.90
18506;DHT22;9382;53.242;10.438;2022-12-07T02:51:56;3.90;99.90
18506;DHT22;9382;53.242;10.438;2022-12-07T02:54:23;3.90;99.90
18506;DHT22;9382;53.242;10.438;2022-12-07T02:56:54;3.90;99.90
18506;DHT22;9382;53.242;10.438;2022-12-07T02:59:33;3.80;99.90
18506;DHT22;9382;53.242;10.438;2022-12-07T03:02:11;3.80;99.90
18506;DHT22;9382;53.242;10.438;2022-12-07T03:04:46;3.80;99.90
18506;DHT22;9382;53.242;10.438;2022-12-07T03:07:24;3.80;99.90
18506;DHT22;9382;53.242;10.438;2022-12-07T03:09:58;3.70;99.90
18506;DHT22;9382;53.242;10.438;2022-12-07T03:12:31;3.70;99.90
18506;DHT22;9382;53.242;10.438;2022-12-07T03:15:05;3.60;99.90
18506;DHT22;9382;53.242;10.438;2022-12-07T03:17:35;3.60;99.90
18506;DHT22;9382;53.242;10.438;2022-12-07T03:20:06;3.60;99.90
18506;DHT22;9382;53.242;10.438;2022-12-07T03:22:35;3.60;99.90
18506;DHT22;9382;53.242;10.438;2022-12-07T03:25:06;3.60;99.90
18506;DHT22;9382;53.242;10.438;2022-12-07T03:27:39;3.50;99.90
18506;DHT22;9382;53.242;10.438;2022-12-07T03:30:11;3.50;99.90
18506;DHT22;9382;53.242;10.438;2022-12-07T03:32:42;3.50;99.90
18506;DHT22;9382;53.242;10.438;2022-12-07T03:35:14;3.50;99.90
18506;DHT22;9382;53.242;10.438;2022-12-07T03:37:47;3.50;99.90
18506;DHT22;9382;53.242;10.438;2022-12-07T03:40:20;3.50;99.90
18506;DHT22;9382;53.242;10.438;2022-12-07T03:42:50;3.50;99.90
18506;DHT22;9382;53.242;10.438;2022-12-07T03:45:21;3.50;99.90
18506;DHT22;9382;53.242;10.438;2022-12-07T03:47:54;3.50;99.90
18506;DHT22;9382;53.242;10.438;2022-12-07T03:50:31;3.50;99.90
18506;DHT22;9382;53.242;10.438;2022-12-07T03:53:02;3.50;99.90
18506;DHT22;9382;53.242;10.438;2022-12-07T03:55:33;3.40;99.90
18506;DHT22;9382;53.242;10.438;2022-12-07T03:58:05;3.30;99.90
18506;DHT22;9382;53.242;10.438;2022-12-07T04:00:34;3.30;99.90
18506;DHT22;9382;53.242;10.438;2022-12-07T04:03:01;3.20;99.90
18506;DHT22;9382;53.242;10.438;2022-12-07T04:05:28;3.20;99.90
18506;DHT22;9382;53.242;10.438;2022-12-07T04:07:55;3.10;99.90
18506;DHT22;9382;53.242;10.438;2022-12-07T04:10:22;3.10;99.90
18506;DHT22;9382;53.242;10.438;2022-12-07T04:12:49;3.00;99.90
18506;DHT22;9382;53.242;10.438;2022-12-07T04:15:16;3.00;99.90
18506;DHT22;9382;53.242;10.438;2022-12-07T04:17:44;3.00;99.90
18506;DHT22;9382;53.242;10.438;2022-12-07T04:20:12;3.00;99.90
18506;DHT22;9382;53.242;10.438;2022-12-07T04:22:39;3.00;99.90
18506;DHT22;9382;53.242;10.438;2022-12-07T04:25:07;3.00;99.90
18506;DHT22;9382;53.242;10.438;2022-12-07T04:27:34;3.00;99.90
18506;DHT22;9382;53.242;10.438;2022-12-07T04:30:00;3.00;99.90
18506;DHT22;9382;53.242;10.438;2022-12-07T04:32:27;3.00;99.90
18506;DHT22;9382;53.242;10.438;2022-12-07T04:34:55;3.00;99.90
18506;DHT22;9382;53.242;10.438;2022-12-07T04:37:23;2.90;99.90
18506;DHT22;9382;53.242;10.438;2022-12-07T04:39:50;2.90;99.90
18506;DHT22;9382;53.242;10.438;2022-12-07T04:42:17;2.80;99.90
18506;DHT22;9382;53.242;10.438;2022-12-07T04:44:43;2.80;99.90
18506;DHT22;9382;53.242;10.438;2022-12-07T04:47:10;2.70;99.90
18506;DHT22;9382;53.242;10.438;2022-12-07T04:49:37;2.70;99.90
18506;DHT22;9382;53.242;10.438;2022-12-07T04:52:06;2.70;99.90
18506;DHT22;9382;53.242;10.438;2022-12-07T04:54:32;2.60;99.90
18506;DHT22;9382;53.242;10.438;2022-12-07T04:56:59;2.60;99.90
18506;DHT22;9382;53.242;10.438;2022-12-07T04:59:26;2.60;99.90
18506;DHT22;9382;53.242;10.438;2022-12-07T05:01:53;2.50;99.90
18506;DHT22;9382;53.242;10.438;2022-12-07T05:04:20;2.50;99.90
18506;DHT22;9382;53.242;10.438;2022-12-07T05:06:47;2.50;99.90
18506;DHT22;9382;53.242;10.438;2022-12-07T05:09:15;2.50;99.90
18506;DHT22;9382;53.242;10.438;2022-12-07T05:11:42;2.50;99.90
18506;DHT22;9382;53.242;10.438;2022-12-07T05:14:12;2.40;99.90
18506;DHT22;9382;53.242;10.438;2022-12-07T05:16:40;2.40;99.90
18506;DHT22;9382;53.242;10.438;2022-12-07T05:19:07;2.40;99.90
18506;DHT22;9382;53.242;10.438;2022-12-07T05:21:34;2.40;99.90
18506;DHT22;9382;53.242;10.438;2022-12-07T05:24:02;2.30;99.90
18506;DHT22;9382;53.242;10.438;2022-12-07T05:26:30;2.30;99.90
18506;DHT22;9382;53.242;10.438;2022-12-07T05:28:57;2.30;99.90
18506;DHT22;9382;53.242;10.438;2022-12-07T05:31:25;2.20;99.90
18506;DHT22;9382;53.242;10.438;2022-12-07T05:33:53;2.20;99.90
18506;DHT22;9382;53.242;10.438;2022-12-07T05:36:20;2.20;99.90
18506;DHT22;9382;53.242;10.438;2022-12-07T05:38:47;2.20;99.90
18506;DHT22;9382;53.242;10.438;2022-12-07T05:41:16;2.20;99.90
18506;DHT22;9382;53.242;10.438;2022-12-07T05:44:02;2.20;99.90
18506;DHT22;9382;53.242;10.438;2022-12-07T05:46:29;2.10;99.90
18506;DHT22;9382;53.242;10.438;2022-12-07T05:48:56;2.10;99.90
18506;DHT22;9382;53.242;10.438;2022-12-07T05:51:23;2.10;99.90
18506;DHT22;9382;53.242;10.438;2022-12-07T05:53:49;2.00;99.90
18506;DHT22;9382;53.242;10.438;2022-12-07T05:56:16;2.00;99.90
18506;DHT22;9382;53.242;10.438;2022-12-07T05:58:43;2.00;99.90
18506;DHT22;9382;53.242;10.438;2022-12-07T06:01:29;2.00;99.90
18506;DHT22;9382;53.242;10.438;2022-12-07T06:03:56;2.00;99.90
18506;DHT22;9382;53.242;10.438;2022-12-07T06:06:22;1.90;99.90
18506;DHT22;9382;53.242;10.438;2022-12-07T06:08:49;1.90;99.90
18506;DHT22;9382;53.242;10.438;2022-12-07T06:11:16;1.90;99.90
18506;DHT22;9382;53.242;10.438;2022-12-07T06:14:00;1.90;99.90
18506;DHT22;9382;53.242;10.438;2022-12-07T06:16:29;1.80;99.90
18506;DHT22;9382;53.242;10.438;2022-12-07T06:18:56;1.80;99.90
18506;DHT22;9382;53.242;10.438;2022-12-07T06:21:22;1.80;99.90
18506;DHT22;9382;53.242;10.438;2022-12-07T06:23:51;1.70;99.90
18506;DHT22;9382;53.242;10.438;2022-12-07T06:26:18;1.70;99.90
18506;DHT22;9382;53.242;10.438;2022-12-07T06:28:44;1.60;99.90
18506;DHT22;9382;53.242;10.438;2022-12-07T06:31:11;1.60;99.90
18506;DHT22;9382;53.242;10.438;2022-12-07T06:33:39;1.60;99.90
18506;DHT22;9382;53.242;10.438;2022-12-07T06:36:07;1.50;99.90
18506;DHT22;9382;53.242;10.438;2022-12-07T06:38:34;1.50;99.90
18506;DHT22;9382;53.242;10.438;2022-12-07T06:41:01;1.50;99.90
18506;DHT22;9382;53.242;10.438;2022-12-07T06:43:28;1.50;99.90
18506;DHT22;9382;53.242;10.438;2022-12-07T06:45:55;1.50;99.90
18506;DHT22;9382;53.242;10.438;2022-12-07T06:48:22;1.40;99.90
18506;DHT22;9382;53.242;10.438;2022-12-07T06:50:50;1.40;99.90
18506;DHT22;9382;53.242;10.438;2022-12-07T06:53:17;1.40;99.90
18506;DHT22;9382;53.242;10.438;2022-12-07T06:55:43;1.40;99.90
18506;DHT22;9382;53.242;10.438;2022-12-07T06:58:10;1.40;99.90
18506;DHT22;9382;53.242;10.438;2022-12-07T07:00:37;1.40;99.90
18506;DHT22;9382;53.242;10.438;2022-12-07T07:03:04;1.50;99.90
18506;DHT22;9382;53.242;10.438;2022-12-07T07:05:31;1.50;99.90
18506;DHT22;9382;53.242;10.438;2022-12-07T07:07:59;1.50;99.90
18506;DHT22;9382;53.242;10.438;2022-12-07T07:10:25;1.50;99.90
18506;DHT22;9382;53.242;10.438;2022-12-07T07:12:53;1.60;99.90
18506;DHT22;9382;53.242;10.438;2022-12-07T07:15:20;1.60;99.90
18506;DHT22;9382;53.242;10.438;2022-12-07T07:17:46;1.60;99.90
18506;DHT22;9382;53.242;10.438;2022-12-07T07:20:13;1.60;99.90
18506;DHT22;9382;53.242;10.438;2022-12-07T07:22:40;1.60;99.90
18506;DHT22;9382;53.242;10.438;2022-12-07T07:25:08;1.60;99.90
18506;DHT22;9382;53.242;10.438;2022-12-07T07:27:35;1.70;99.90
18506;DHT22;9382;53.242;10.438;2022-12-07T07:30:03;1.70;99.90
18506;DHT22;9382;53.242;10.438;2022-12-07T07:32:30;1.70;99.90
18506;DHT22;9382;53.242;10.438;2022-12-07T07:34:57;1.70;99.90
18506;DHT22;9382;53.242;10.438;2022-12-07T07:37:23;1.80;99.90
18506;DHT22;9382;53.242;10.438;2022-12-07T07:39:50;1.80;99.90
18506;DHT22;9382;53.242;10.438;2022-12-07T07:42:18;1.80;99.90
18506;DHT22;9382;53.242;10.438;2022-12-07T07:44:45;1.90;99.90
18506;DHT22;9382;53.242;10.438;2022-12-07T07:47:12;1.90;99.90
18506;DHT22;9382;53.242;10.438;2022-12-07T07:49:39;1.90;99.90
18506;DHT22;9382;53.242;10.438;2022-12-07T07:52:06;2.00;99.90
18506;DHT22;9382;53.242;10.438;2022-12-07T07:54:32;2.00;99.90
18506;DHT22;9382;53.242;10.438;2022-12-07T07:56:59;2.00;99.90
18506;DHT22;9382;53.242;10.438;2022-12-07T07:59:27;2.00;99.90
18506;DHT22;9382;53.242;10.438;2022-12-07T08:01:54;2.10;99.90
18506;DHT22;9382;53.242;10.438;2022-12-07T08:04:21;2.10;99.90
18506;DHT22;9382;53.242;10.438;2022-12-07T08:06:48;2.10;99.90
18506;DHT22;9382;53.242;10.438;2022-12-07T08:09:15;2.10;99.90
18506;DHT22;9382;53.242;10.438;2022-12-07T08:11:42;2.20;99.90
18506;DHT22;9382;53.242;10.438;2022-12-07T08:14:09;2.20;99.90
18506;DHT22;9382;53.242;10.438;2022-12-07T08:16:38;2.20;99.90
18506;DHT22;9382;53.242;10.438;2022-12-07T08:19:05;2.30;99.90
18506;DHT22;9382;53.242;10.438;2022-12-07T08:21:33;2.30;99.90
18506;DHT22;9382;53.242;10.438;2022-12-07T08:24:00;2.40;99.90
18506;DHT22;9382;53.242;10.438;2022-12-07T08:26:26;2.40;99.90
18506;DHT22;9382;53.242;10.438;2022-12-07T08:28:53;2.40;99.90
18506;DHT22;9382;53.242;10.438;2022-12-07T08:31:20;2.50;99.90
18506;DHT22;9382;53.242;10.438;2022-12-07T08:33:48;2.50;99.90
18506;DHT22;9382;53.242;10.438;2022-12-07T08:36:16;2.60;99.90
18506;DHT22;9382;53.242;10.438;2022-12-07T08:38:43;2.60;99.90
18506;DHT22;9382;53.242;10.438;2022-12-07T08:41:10;2.60;99.90
18506;DHT22;9382;53.242;10.438;2022-12-07T08:43:37;2.60;99.90
18506;DHT22;9382;53.242;10.438;2022-12-07T08:46:08;2.70;99.90
18506;DHT22;9382;53.242;10.438;2022-12-07T08:48:39;2.70;99.90
18506;DHT22;9382;53.242;10.438;2022-12-07T08:51:08;2.70;99.90
18506;DHT22;9382;53.242;10.438;2022-12-07T08:53:37;2.80;99.90
18506;DHT22;9382;53.242;10.438;2022-12-07T08:56:06;2.80;99.90
18506;DHT22;9382;53.242;10.438;2022-12-07T08:58:36;2.80;99.90
18506;DHT22;9382;53.242;10.438;2022-12-07T09:01:04;2.90;99.90
18506;DHT22;9382;53.242;10.438;2022-12-07T09:03:31;2.90;99.90
18506;DHT22;9382;53.242;10.438;2022-12-07T09:05:58;3.00;99.90
18506;DHT22;9382;53.242;10.438;2022-12-07T09:08:30;3.00;99.90
18506;DHT22;9382;53.242;10.438;2022-12-07T09:10:58;3.00;99.90
18506;DHT22;9382;53.242;10.438;2022-12-07T09:13:25;3.10;99.90
18506;DHT22;9382;53.242;10.438;2022-12-07T09:15:52;3.30;99.90
18506;DHT22;9382;53.242;10.438;2022-12-07T09:18:19;3.30;99.90
18506;DHT22;9382;53.242;10.438;2022-12-07T09:20:46;3.40;99.90
18506;DHT22;9382;53.242;10.438;2022-12-07T09:23:12;3.50;99.90
18506;DHT22;9382;53.242;10.438;2022-12-07T09:25:41;3.60;99.90
18506;DHT22;9382;53.242;10.438;2022-12-07T09:28:07;3.70;99.90
18506;DHT22;9382;53.242;10.438;2022-12-07T09:30:35;3.70;99.90
18506;DHT22;9382;53.242;10.438;2022-12-07T09:33:02;3.70;99.90
18506;DHT22;9382;53.242;10.438;2022-12-07T09:35:29;3.70;99.90
18506;DHT22;9382;53.242;10.438;2022-12-07T09:37:56;3.70;99.90
18506;DHT22;9382;53.242;10.438;2022-12-07T09:40:23;3.70;99.90
18506;DHT22;9382;53.242;10.438;2022-12-07T09:42:53;3.70;99.90
18506;DHT22;9382;53.242;10.438;2022-12-07T09:45:23;3.70;99.90
18506;DHT22;9382;53.242;10.438;2022-12-07T09:47:50;3.80;99.90
18506;DHT22;9382;53.242;10.438;2022-12-07T09:50:20;3.80;99.90
18506;DHT22;9382;53.242;10.438;2022-12-07T09:52:49;3.80;99.90
18506;DHT22;9382;53.242;10.438;2022-12-07T09:55:22;3.80;99.90
18506;DHT22;9382;53.242;10.438;2022-12-07T09:57:52;3.80;99.90
18506;DHT22;9382;53.242;10.438;2022-12-07T10:00:21;3.80;99.90
18506;DHT22;9382;53.242;10.438;2022-12-07T10:02:52;3.90;99.90
18506;DHT22;9382;53.242;10.438;2022-12-07T10:05:23;3.90;99.90
18506;DHT22;9382;53.242;10.438;2022-12-07T10:07:51;3.90;99.90
18506;DHT22;9382;53.242;10.438;2022-12-07T10:10:22;3.90;99.90
18506;DHT22;9382;53.242;10.438;2022-12-07T10:12:56;4.10;99.90
18506;DHT22;9382;53.242;10.438;2022-12-07T10:15:27;4.20;99.90
18506;DHT22;9382;53.242;10.438;2022-12-07T10:18:17;4.20;99.90
18506;DHT22;9382;53.242;10.438;2022-12-07T10:20:45;4.20;99.90
18506;DHT22;9382;53.242;10.438;2022-12-07T10:23:14;4.20;99.90
18506;DHT22;9382;53.242;10.438;2022-12-07T10:25:41;4.30;99.90
18506;DHT22;9382;53.242;10.438;2022-12-07T10:28:16;4.40;99.90
18506;DHT22;9382;53.242;10.438;2022-12-07T10:30:52;4.40;99.90
18506;DHT22;9382;53.242;10.438;2022-12-07T10:33:30;4.40;99.90
18506;DHT22;9382;53.242;10.438;2022-12-07T10:35:57;4.40;99.90
18506;DHT22;9382;53.242;10.438;2022-12-07T10:38:25;4.30;99.90
18506;DHT22;9382;53.242;10.438;2022-12-07T10:41:03;4.30;99.90
18506;DHT22;9382;53.242;10.438;2022-12-07T10:43:31;4.30;99.90
18506;DHT22;9382;53.242;10.438;2022-12-07T10:49:15;4.40;99.90
18506;DHT22;9382;53.242;10.438;2022-12-07T10:51:52;4.50;99.90
18506;DHT22;9382;53.242;10.438;2022-12-07T10:54:30;4.50;99.90
18506;DHT22;9382;53.242;10.438;2022-12-07T10:57:24;4.60;99.90
18506;DHT22;9382;53.242;10.438;2022-12-07T11:00:01;4.70;99.90
18506;DHT22;9382;53.242;10.438;2022-12-07T11:05:27;4.70;99.90
18506;DHT22;9382;53.242;10.438;2022-12-07T11:08:03;4.70;99.90
18506;DHT22;9382;53.242;10.438;2022-12-07T11:10:38;4.80;99.90
18506;DHT22;9382;53.242;10.438;2022-12-07T11:13:18;4.70;99.90
18506;DHT22;9382;53.242;10.438;2022-12-07T11:15:59;4.70;99.90
18506;DHT22;9382;53.242;10.438;2022-12-07T11:18:32;4.60;99.90
18506;DHT22;9382;53.242;10.438;2022-12-07T11:21:06;4.60;99.90
18506;DHT22;9382;53.242;10.438;2022-12-07T11:23:43;4.50;99.90
18506;DHT22;9382;53.242;10.438;2022-12-07T11:26:19;4.50;99.90
18506;DHT22;9382;53.242;10.438;2022-12-07T11:29:03;4.50;99.90
18506;DHT22;9382;53.242;10.438;2022-12-07T11:31:38;4.50;99.90
18506;DHT22;9382;53.242;10.438;2022-12-07T11:34:18;4.70;99.90
18506;DHT22;9382;53.242;10.438;2022-12-07T11:36:52;4.70;99.90
18506;DHT22;9382;53.242;10.438;2022-12-07T11:39:26;4.60;99.90
18506;DHT22;9382;53.242;10.438;2022-12-07T11:41:57;4.60;99.90
18506;DHT22;9382;53.242;10.438;2022-12-07T11:44:31;4.60;99.90
18506;DHT22;9382;53.242;10.438;2022-12-07T11:47:04;4.70;99.90
18506;DHT22;9382;53.242;10.438;2022-12-07T11:49:41;4.70;99.90
18506;DHT22;9382;53.242;10.438;2022-12-07T11:52:17;4.80;99.90
18506;DHT22;9382;53.242;10.438;2022-12-07T11:54:46;4.80;99.90
18506;DHT22;9382;53.242;10.438;2022-12-07T11:57:20;4.90;99.90
18506;DHT22;9382;53.242;10.438;2022-12-07T11:59:52;4.90;99.90
18506;DHT22;9382;53.242;10.438;2022-12-07T12:02:31;4.90;99.90
18506;DHT22;9382;53.242;10.438;2022-12-07T12:05:05;4.90;99.90
18506;DHT22;9382;53.242;10.438;2022-12-07T12:07:39;5.00;99.90
18506;DHT22;9382;53.242;10.438;2022-12-07T12:10:16;5.10;99.90
18506;DHT22;9382;53.242;10.438;2022-12-07T12:13:02;5.10;99.90
18506;DHT22;9382;53.242;10.438;2022-12-07T12:15:44;5.00;99.90
18506;DHT22;9382;53.242;10.438;2022-12-07T12:18:32;4.90;99.90
18506;DHT22;9382;53.242;10.438;2022-12-07T12:21:06;4.90;99.90
18506;DHT22;9382;53.242;10.438;2022-12-07T12:23:38;4.90;99.90
18506;DHT22;9382;53.242;10.438;2022-12-07T12:26:13;4.80;99.90
18506;DHT22;9382;53.242;10.438;2022-12-07T12:28:42;4.80;99.90
18506;DHT22;9382;53.242;10.438;2022-12-07T12:31:31;4.80;99.90
18506;DHT22;9382;53.242;10.438;2022-12-07T12:34:01;5.00;99.90
18506;DHT22;9382;53.242;10.438;2022-12-07T12:36:44;5.00;99.90
18506;DHT22;9382;53.242;10.438;2022-12-07T12:39:13;5.00;99.90
18506;DHT22;9382;53.242;10.438;2022-12-07T12:41:59;5.30;99.90
18506;DHT22;9382;53.242;10.438;2022-12-07T12:47:43;6.30;99.90
18506;DHT22;9382;53.242;10.438;2022-12-07T12:50:22;6.20;99.90
18506;DHT22;9382;53.242;10.438;2022-12-07T12:53:02;6.40;99.90
18506;DHT22;9382;53.242;10.438;2022-12-07T12:58:36;7.00;99.90
18506;DHT22;9382;53.242;10.438;2022-12-07T13:10:43;5.90;99.90
18506;DHT22;9382;53.242;10.438;2022-12-07T13:13:33;6.10;99.90
18506;DHT22;9382;53.242;10.438;2022-12-07T13:25:21;5.50;99.90
18506;DHT22;9382;53.242;10.438;2022-12-07T13:27:57;5.70;99.90
18506;DHT22;9382;53.242;10.438;2022-12-07T13:30:24;6.00;99.90
18506;DHT22;9382;53.242;10.438;2022-12-07T13:32:55;6.20;99.90
18506;DHT22;9382;53.242;10.438;2022-12-07T13:35:33;6.40;99.90
18506;DHT22;9382;53.242;10.438;2022-12-07T13:38:04;6.60;99.90
18506;DHT22;9382;53.242;10.438;2022-12-07T13:40:31;6.60;99.90
18506;DHT22;9382;53.242;10.438;2022-12-07T13:43:01;6.40;99.90
18506;DHT22;9382;53.242;10.438;2022-12-07T13:45:30;6.30;99.90
18506;DHT22;9382;53.242;10.438;2022-12-07T13:48:22;6.40;99.90
18506;DHT22;9382;53.242;10.438;2022-12-07T13:50:55;6.80;99.90
18506;DHT22;9382;53.242;10.438;2022-12-07T13:53:23;6.90;99.90
18506;DHT22;9382;53.242;10.438;2022-12-07T13:55:50;6.80;99.90
18506;DHT22;9382;53.242;10.438;2022-12-07T13:58:18;6.40;99.90
18506;DHT22;9382;53.242;10.438;2022-12-07T14:00:45;5.90;99.90
18506;DHT22;9382;53.242;10.438;2022-12-07T14:03:31;5.60;99.90
18506;DHT22;9382;53.242;10.438;2022-12-07T14:06:10;5.30;99.90
18506;DHT22;9382;53.242;10.438;2022-12-07T14:08:39;5.10;99.90
18506;DHT22;9382;53.242;10.438;2022-12-07T14:11:09;5.00;99.90
18506;DHT22;9382;53.242;10.438;2022-12-07T14:13:38;5.00;99.90
18506;DHT22;9382;53.242;10.438;2022-12-07T14:16:22;4.80;99.90
18506;DHT22;9382;53.242;10.438;2022-12-07T14:18:50;4.60;99.90
18506;DHT22;9382;53.242;10.438;2022-12-07T14:21:19;4.50;99.90
18506;DHT22;9382;53.242;10.438;2022-12-07T14:24:14;4.30;99.90
18506;DHT22;9382;53.242;10.438;2022-12-07T14:26:42;4.20;99.90
18506;DHT22;9382;53.242;10.438;2022-12-07T14:29:21;4.10;99.90
18506;DHT22;9382;53.242;10.438;2022-12-07T14:31:49;4.00;99.90
18506;DHT22;9382;53.242;10.438;2022-12-07T14:34:15;4.00;99.90
18506;DHT22;9382;53.242;10.438;2022-12-07T14:36:42;3.90;99.90
18506;DHT22;9382;53.242;10.438;2022-12-07T14:39:09;3.90;99.90
18506;DHT22;9382;53.242;10.438;2022-12-07T14:41:36;3.80;99.90
18506;DHT22;9382;53.242;10.438;2022-12-07T14:44:20;3.70;99.90
18506;DHT22;9382;53.242;10.438;2022-12-07T14:46:48;3.60;99.90
18506;DHT22;9382;53.242;10.438;2022-12-07T14:49:15;3.50;99.90
18506;DHT22;9382;53.242;10.438;2022-12-07T14:51:43;3.50;99.90
18506;DHT22;9382;53.242;10.438;2022-12-07T14:54:15;3.40;99.90
18506;DHT22;9382;53.242;10.438;2022-12-07T14:56:43;3.30;99.90
18506;DHT22;9382;53.242;10.438;2022-12-07T14:59:11;3.30;99.90
18506;DHT22;9382;53.242;10.438;2022-12-07T15:01:39;3.30;99.90
18506;DHT22;9382;53.242;10.438;2022-12-07T15:04:06;3.20;99.90
18506;DHT22;9382;53.242;10.438;2022-12-07T15:06:33;3.20;99.90
18506;DHT22;9382;53.242;10.438;2022-12-07T15:09:00;3.20;99.90
18506;DHT22;9382;53.242;10.438;2022-12-07T15:11:27;3.10;99.90
18506;DHT22;9382;53.242;10.438;2022-12-07T15:13:54;3.20;99.90
18506;DHT22;9382;53.242;10.438;2022-12-07T15:16:40;3.10;99.90
18506;DHT22;9382;53.242;10.438;2022-12-07T15:19:12;3.10;99.90
18506;DHT22;9382;53.242;10.438;2022-12-07T15:21:39;3.00;99.90
18506;DHT22;9382;53.242;10.438;2022-12-07T15:24:08;2.90;99.90
18506;DHT22;9382;53.242;10.438;2022-12-07T15:26:35;2.90;99.90
18506;DHT22;9382;53.242;10.438;2022-12-07T15:29:02;2.80;99.90
18506;DHT22;9382;53.242;10.438;2022-12-07T15:31:29;2.80;99.90
18506;DHT22;9382;53.242;10.438;2022-12-07T15:33:57;2.70;99.90
18506;DHT22;9382;53.242;10.438;2022-12-07T15:36:26;2.70;99.90
18506;DHT22;9382;53.242;10.438;2022-12-07T15:38:54;2.60;99.90
18506;DHT22;9382;53.242;10.438;2022-12-07T15:41:21;2.60;99.90
18506;DHT22;9382;53.242;10.438;2022-12-07T15:43:48;2.60;99.90
18506;DHT22;9382;53.242;10.438;2022-12-07T15:46:33;2.50;99.90
18506;DHT22;9382;53.242;10.438;2022-12-07T15:49:02;2.50;99.90
18506;DHT22;9382;53.242;10.438;2022-12-07T15:51:29;2.50;99.90
18506;DHT22;9382;53.242;10.438;2022-12-07T15:53:57;2.50;99.90
18506;DHT22;9382;53.242;10.438;2022-12-07T15:56:24;2.50;99.90
18506;DHT22;9382;53.242;10.438;2022-12-07T15:58:51;2.50;99.90
18506;DHT22;9382;53.242;10.438;2022-12-07T16:01:19;2.50;99.90
18506;DHT22;9382;53.242;10.438;2022-12-07T16:03:47;2.40;99.90
18506;DHT22;9382;53.242;10.438;2022-12-07T16:06:17;2.40;99.90
18506;DHT22;9382;53.242;10.438;2022-12-07T16:08:44;2.40;99.90
18506;DHT22;9382;53.242;10.438;2022-12-07T16:11:11;2.30;99.90
18506;DHT22;9382;53.242;10.438;2022-12-07T16:13:39;2.30;99.90
18506;DHT22;9382;53.242;10.438;2022-12-07T16:16:08;2.30;99.90
18506;DHT22;9382;53.242;10.438;2022-12-07T16:18:36;2.20;99.90
18506;DHT22;9382;53.242;10.438;2022-12-07T16:21:03;2.20;99.90
18506;DHT22;9382;53.242;10.438;2022-12-07T16:23:32;2.10;99.90
18506;DHT22;9382;53.242;10.438;2022-12-07T16:26:05;2.10;99.90
18506;DHT22;9382;53.242;10.438;2022-12-07T16:28:32;2.00;99.90
18506;DHT22;9382;53.242;10.438;2022-12-07T16:31:03;1.90;99.90
18506;DHT22;9382;53.242;10.438;2022-12-07T16:33:31;1.90;99.90
18506;DHT22;9382;53.242;10.438;2022-12-07T16:35:58;1.90;99.90
18506;DHT22;9382;53.242;10.438;2022-12-07T16:38:26;1.80;99.90
18506;DHT22;9382;53.242;10.438;2022-12-07T16:40:54;1.90;99.90